ASL27L LDDU-LYBE
Flight info
| Callsign | ASL27L |
|---|---|
| Flight time | 0h 33m |
| Altitude | 31000 |
| Route | MOKUN DCT TORTO DCT ELGEB |
| Aircraft | A320/M-SDE3FGHIRWY/LB1 |
Departure
| Time | 2026-05-06 13:25 |
|---|---|
| Airport | Dubrovnik Ruđer Bošković Airport (LDDU) |
Arrival
| Time | 2026-05-06 13:58 |
|---|---|
| Airport | Belgrade Nikola Tesla Airport (LYBE) |
| Time | Latitude | Longitude | Altitude | Speed | Heading |
|---|---|---|---|---|---|
| 2026-05-06 13:15 | 42.56085 | 18.26300 | 534 ft | 0 kts | 208° |
| 2026-05-06 13:16 | 42.56089 | 18.26303 | 534 ft | 4 kts | 208° |
| 2026-05-06 13:16 | 42.56113 | 18.26320 | 534 ft | 4 kts | 213° |
| 2026-05-06 13:17 | 42.56130 | 18.26345 | 534 ft | 4 kts | 256° |
| 2026-05-06 13:17 | 42.56129 | 18.26372 | 534 ft | 1 kts | 298° |
| 2026-05-06 13:20 | 42.56137 | 18.26352 | 534 ft | 6 kts | 298° |
| 2026-05-06 13:20 | 42.56160 | 18.26292 | 534 ft | 9 kts | 298° |
| 2026-05-06 13:21 | 42.56196 | 18.26202 | 534 ft | 13 kts | 298° |
| 2026-05-06 13:21 | 42.56241 | 18.26089 | 534 ft | 15 kts | 299° |
| 2026-05-06 13:21 | 42.56309 | 18.25917 | 534 ft | 25 kts | 298° |
| 2026-05-06 13:21 | 42.56397 | 18.25696 | 534 ft | 28 kts | 298° |
| 2026-05-06 13:22 | 42.56492 | 18.25460 | 534 ft | 24 kts | 298° |
| 2026-05-06 13:22 | 42.56575 | 18.25252 | 534 ft | 26 kts | 298° |
| 2026-05-06 13:22 | 42.56662 | 18.25033 | 534 ft | 27 kts | 298° |
| 2026-05-06 13:22 | 42.56747 | 18.24817 | 534 ft | 22 kts | 297° |
| 2026-05-06 13:23 | 42.56807 | 18.24694 | 534 ft | 12 kts | 319° |
| 2026-05-06 13:23 | 42.56896 | 18.24691 | 533 ft | 17 kts | 25° |
| 2026-05-06 13:23 | 42.56924 | 18.24833 | 533 ft | 15 kts | 121° |
| 2026-05-06 13:23 | 42.56910 | 18.24869 | 533 ft | 2 kts | 117° |
| 2026-05-06 13:24 | 42.56841 | 18.25050 | 532 ft | 54 kts | 118° |
| 2026-05-06 13:24 | 42.56566 | 18.25743 | 535 ft | 110 kts | 118° |
| 2026-05-06 13:24 | 42.56129 | 18.26844 | 538 ft | 153 kts | 118° |
| 2026-05-06 13:24 | 42.55608 | 18.28161 | 1010 ft | 161 kts | 122° |
| 2026-05-06 13:25 | 42.55088 | 18.29462 | 1875 ft | 153 kts | 122° |
| 2026-05-06 13:25 | 42.54606 | 18.30671 | 2729 ft | 140 kts | 122° |
| 2026-05-06 13:25 | 42.54133 | 18.31867 | 3199 ft | 152 kts | 123° |
| 2026-05-06 13:25 | 42.53577 | 18.33204 | 3453 ft | 173 kts | 128° |
| 2026-05-06 13:26 | 42.52754 | 18.34517 | 3675 ft | 193 kts | 140° |
| 2026-05-06 13:26 | 42.51596 | 18.35610 | 3955 ft | 215 kts | 155° |
| 2026-05-06 13:26 | 42.50110 | 18.36294 | 4324 ft | 238 kts | 170° |
| 2026-05-06 13:26 | 42.48398 | 18.36358 | 5081 ft | 251 kts | 184° |
| 2026-05-06 13:27 | 42.46658 | 18.36589 | 6094 ft | 258 kts | 160° |
| 2026-05-06 13:27 | 42.45234 | 18.38088 | 6935 ft | 274 kts | 128° |
| 2026-05-06 13:27 | 42.44517 | 18.40522 | 7671 ft | 288 kts | 100° |
| 2026-05-06 13:27 | 42.44612 | 18.43285 | 8393 ft | 298 kts | 86° |
| 2026-05-06 13:28 | 42.45013 | 18.46060 | 9223 ft | 303 kts | 71° |
| 2026-05-06 13:28 | 42.46026 | 18.48586 | 10124 ft | 308 kts | 51° |
| 2026-05-06 13:28 | 42.47596 | 18.50590 | 10732 ft | 317 kts | 35° |
| 2026-05-06 13:28 | 42.49439 | 18.52431 | 10960 ft | 341 kts | 35° |
| 2026-05-06 13:29 | 42.51403 | 18.54386 | 11332 ft | 356 kts | 36° |
| 2026-05-06 13:29 | 42.53422 | 18.56401 | 11898 ft | 364 kts | 35° |
| 2026-05-06 13:29 | 42.55609 | 18.58116 | 12575 ft | 364 kts | 21° |
| 2026-05-06 13:29 | 42.57934 | 18.59401 | 13254 ft | 367 kts | 20° |
| 2026-05-06 13:30 | 42.60316 | 18.60720 | 13879 ft | 371 kts | 19° |
| 2026-05-06 13:30 | 42.62722 | 18.62058 | 14464 ft | 374 kts | 20° |
| 2026-05-06 13:30 | 42.65135 | 18.63410 | 15030 ft | 377 kts | 20° |
| 2026-05-06 13:30 | 42.67577 | 18.64778 | 15622 ft | 380 kts | 20° |
| 2026-05-06 13:31 | 42.69202 | 18.65684 | 16059 ft | 381 kts | 20° |
| 2026-05-06 13:31 | 42.71662 | 18.67058 | 16683 ft | 384 kts | 20° |
| 2026-05-06 13:31 | 42.74141 | 18.68445 | 17282 ft | 386 kts | 20° |
| 2026-05-06 13:31 | 42.76640 | 18.69844 | 17891 ft | 390 kts | 20° |
| 2026-05-06 13:32 | 42.79158 | 18.71255 | 18465 ft | 393 kts | 20° |
| 2026-05-06 13:32 | 42.81709 | 18.72684 | 18967 ft | 397 kts | 19° |
| 2026-05-06 13:32 | 42.84273 | 18.74123 | 19470 ft | 400 kts | 19° |
| 2026-05-06 13:32 | 42.86865 | 18.75577 | 19987 ft | 403 kts | 20° |
| 2026-05-06 13:33 | 42.89442 | 18.77021 | 20505 ft | 406 kts | 19° |
| 2026-05-06 13:33 | 42.92070 | 18.78496 | 20967 ft | 409 kts | 19° |
| 2026-05-06 13:33 | 42.94713 | 18.79987 | 21464 ft | 412 kts | 19° |
| 2026-05-06 13:33 | 42.97376 | 18.81493 | 21923 ft | 415 kts | 19° |
| 2026-05-06 13:34 | 43.00063 | 18.83009 | 22372 ft | 419 kts | 19° |
| 2026-05-06 13:34 | 43.02767 | 18.84536 | 22802 ft | 422 kts | 19° |
| 2026-05-06 13:34 | 43.05491 | 18.86075 | 23233 ft | 425 kts | 19° |
| 2026-05-06 13:34 | 43.08203 | 18.87608 | 23643 ft | 429 kts | 19° |
| 2026-05-06 13:35 | 43.10984 | 18.89181 | 24047 ft | 432 kts | 19° |
| 2026-05-06 13:35 | 43.13772 | 18.90759 | 24431 ft | 434 kts | 19° |
| 2026-05-06 13:35 | 43.16571 | 18.92344 | 24820 ft | 436 kts | 19° |
| 2026-05-06 13:35 | 43.19381 | 18.93938 | 25195 ft | 438 kts | 19° |
| 2026-05-06 13:36 | 43.22220 | 18.95551 | 25584 ft | 441 kts | 19° |
| 2026-05-06 13:36 | 43.25056 | 18.97165 | 25949 ft | 443 kts | 19° |
| 2026-05-06 13:36 | 43.27912 | 18.98793 | 26250 ft | 446 kts | 19° |
| 2026-05-06 13:36 | 43.30786 | 19.00437 | 26656 ft | 447 kts | 19° |
| 2026-05-06 13:37 | 43.33632 | 19.02067 | 27038 ft | 449 kts | 19° |
| 2026-05-06 13:37 | 43.36526 | 19.03721 | 27413 ft | 451 kts | 19° |
| 2026-05-06 13:37 | 43.39444 | 19.05386 | 27789 ft | 453 kts | 19° |
| 2026-05-06 13:37 | 43.42362 | 19.07055 | 28173 ft | 455 kts | 19° |
| 2026-05-06 13:38 | 43.45296 | 19.08737 | 28564 ft | 457 kts | 19° |
| 2026-05-06 13:38 | 43.48196 | 19.10404 | 28919 ft | 459 kts | 19° |
| 2026-05-06 13:38 | 43.51160 | 19.12111 | 29282 ft | 461 kts | 19° |
| 2026-05-06 13:38 | 43.54140 | 19.13825 | 29626 ft | 463 kts | 19° |
| 2026-05-06 13:39 | 43.57129 | 19.15545 | 29991 ft | 465 kts | 19° |
| 2026-05-06 13:39 | 43.60114 | 19.17269 | 30398 ft | 464 kts | 19° |
| 2026-05-06 13:39 | 43.63057 | 19.18968 | 30804 ft | 463 kts | 19° |
| 2026-05-06 13:39 | 43.66036 | 19.20688 | 30937 ft | 462 kts | 19° |
| 2026-05-06 13:40 | 43.69003 | 19.22402 | 30934 ft | 461 kts | 19° |
| 2026-05-06 13:40 | 43.71969 | 19.24115 | 30221 ft | 463 kts | 19° |
| 2026-05-06 13:40 | 43.74947 | 19.25836 | 29470 ft | 462 kts | 19° |
| 2026-05-06 13:40 | 43.77907 | 19.27549 | 28771 ft | 460 kts | 19° |
| 2026-05-06 13:41 | 43.80851 | 19.29256 | 27900 ft | 460 kts | 19° |
| 2026-05-06 13:41 | 43.83835 | 19.30987 | 26806 ft | 467 kts | 20° |
| 2026-05-06 13:41 | 43.86790 | 19.32710 | 26019 ft | 467 kts | 20° |
| 2026-05-06 13:41 | 43.89782 | 19.34456 | 25468 ft | 468 kts | 20° |
| 2026-05-06 13:42 | 43.92848 | 19.36242 | 24947 ft | 483 kts | 20° |
| 2026-05-06 13:42 | 43.95958 | 19.38054 | 24407 ft | 485 kts | 20° |
| 2026-05-06 13:42 | 43.99095 | 19.39886 | 23243 ft | 492 kts | 20° |
| 2026-05-06 13:42 | 44.02258 | 19.41739 | 22185 ft | 491 kts | 21° |
| 2026-05-06 13:43 | 44.05372 | 19.43569 | 21716 ft | 483 kts | 21° |
| 2026-05-06 13:43 | 44.08444 | 19.45374 | 21156 ft | 484 kts | 21° |
| 2026-05-06 13:43 | 44.11537 | 19.47189 | 20555 ft | 480 kts | 21° |
| 2026-05-06 13:43 | 44.14607 | 19.48992 | 19946 ft | 476 kts | 21° |
| 2026-05-06 13:44 | 44.17646 | 19.50780 | 19359 ft | 471 kts | 21° |
| 2026-05-06 13:44 | 44.20651 | 19.52553 | 18753 ft | 467 kts | 22° |
| 2026-05-06 13:44 | 44.23624 | 19.54305 | 18141 ft | 462 kts | 22° |
| 2026-05-06 13:44 | 44.26579 | 19.56046 | 17503 ft | 458 kts | 22° |
| 2026-05-06 13:45 | 44.29501 | 19.57770 | 16921 ft | 454 kts | 22° |
| 2026-05-06 13:45 | 44.35241 | 19.61174 | 15740 ft | 446 kts | 21° |
| 2026-05-06 13:45 | 44.38090 | 19.62866 | 15160 ft | 442 kts | 21° |
| 2026-05-06 13:46 | 44.40914 | 19.64543 | 14581 ft | 439 kts | 21° |
| 2026-05-06 13:46 | 44.43716 | 19.66208 | 14005 ft | 435 kts | 21° |
| 2026-05-06 13:46 | 44.46485 | 19.67853 | 13399 ft | 430 kts | 21° |
| 2026-05-06 13:46 | 44.49232 | 19.69486 | 12831 ft | 427 kts | 21° |
| 2026-05-06 13:47 | 44.51962 | 19.71111 | 12263 ft | 425 kts | 21° |
| 2026-05-06 13:47 | 44.54675 | 19.72730 | 11713 ft | 422 kts | 21° |
| 2026-05-06 13:47 | 44.57332 | 19.74320 | 11238 ft | 420 kts | 22° |
| 2026-05-06 13:47 | 44.60012 | 19.75926 | 10705 ft | 417 kts | 22° |
| 2026-05-06 13:48 | 44.62669 | 19.77518 | 10229 ft | 414 kts | 22° |
| 2026-05-06 13:48 | 44.65332 | 19.79114 | 10132 ft | 415 kts | 21° |
| 2026-05-06 13:48 | 44.67992 | 19.80708 | 9964 ft | 402 kts | 21° |
| 2026-05-06 13:48 | 44.70475 | 19.82201 | 9570 ft | 373 kts | 21° |
| 2026-05-06 13:49 | 44.72767 | 19.83582 | 9058 ft | 354 kts | 21° |
| 2026-05-06 13:49 | 44.74985 | 19.84916 | 8548 ft | 338 kts | 21° |
| 2026-05-06 13:49 | 44.77112 | 19.86194 | 8045 ft | 326 kts | 21° |
| 2026-05-06 13:49 | 44.79168 | 19.87429 | 7550 ft | 317 kts | 21° |
| 2026-05-06 13:50 | 44.81164 | 19.88630 | 7064 ft | 308 kts | 21° |
| 2026-05-06 13:50 | 44.83121 | 19.89812 | 6455 ft | 305 kts | 22° |
| 2026-05-06 13:50 | 44.85054 | 19.90981 | 5876 ft | 300 kts | 22° |
| 2026-05-06 13:50 | 44.86954 | 19.92143 | 5298 ft | 294 kts | 26° |
| 2026-05-06 13:51 | 44.88705 | 19.93606 | 4734 ft | 290 kts | 33° |
| 2026-05-06 13:51 | 44.90389 | 19.95079 | 4195 ft | 285 kts | 33° |
| 2026-05-06 13:51 | 44.91958 | 19.96632 | 4035 ft | 265 kts | 46° |
| 2026-05-06 13:51 | 44.93010 | 19.98604 | 4030 ft | 239 kts | 66° |
| 2026-05-06 13:52 | 44.93524 | 20.00692 | 4043 ft | 212 kts | 83° |
| 2026-05-06 13:52 | 44.93604 | 20.02637 | 4050 ft | 184 kts | 97° |
| 2026-05-06 13:52 | 44.93377 | 20.04332 | 4037 ft | 171 kts | 111° |
| 2026-05-06 13:52 | 44.92904 | 20.05840 | 3940 ft | 162 kts | 123° |
| 2026-05-06 13:53 | 44.92335 | 20.07132 | 3819 ft | 150 kts | 124° |
| 2026-05-06 13:53 | 44.91800 | 20.08354 | 3635 ft | 144 kts | 124° |
| 2026-05-06 13:53 | 44.91272 | 20.09556 | 3461 ft | 144 kts | 124° |
| 2026-05-06 13:53 | 44.90747 | 20.10751 | 3270 ft | 144 kts | 124° |
| 2026-05-06 13:54 | 44.90218 | 20.11951 | 3084 ft | 144 kts | 124° |
| 2026-05-06 13:54 | 44.89697 | 20.13135 | 2893 ft | 143 kts | 125° |
| 2026-05-06 13:54 | 44.89175 | 20.14322 | 2712 ft | 143 kts | 125° |
| 2026-05-06 13:54 | 44.88648 | 20.15517 | 2524 ft | 144 kts | 124° |
| 2026-05-06 13:55 | 44.88123 | 20.16709 | 2340 ft | 142 kts | 126° |
| 2026-05-06 13:55 | 44.87604 | 20.17885 | 2142 ft | 143 kts | 124° |
| 2026-05-06 13:55 | 44.87083 | 20.19066 | 1965 ft | 141 kts | 126° |
| 2026-05-06 13:55 | 44.86564 | 20.20243 | 1774 ft | 140 kts | 126° |
| 2026-05-06 13:56 | 44.86051 | 20.21404 | 1607 ft | 140 kts | 123° |
| 2026-05-06 13:56 | 44.85543 | 20.22555 | 1421 ft | 136 kts | 126° |
| 2026-05-06 13:56 | 44.85040 | 20.23694 | 1239 ft | 139 kts | 124° |
| 2026-05-06 13:56 | 44.84533 | 20.24840 | 1073 ft | 136 kts | 124° |
| 2026-05-06 13:57 | 44.84037 | 20.25983 | 838 ft | 137 kts | 127° |
| 2026-05-06 13:57 | 44.83530 | 20.27117 | 657 ft | 138 kts | 126° |
| 2026-05-06 13:57 | 44.83029 | 20.28262 | 505 ft | 137 kts | 127° |
| 2026-05-06 13:57 | 44.82521 | 20.29389 | 330 ft | 135 kts | 126° |
| 2026-05-06 13:58 | 44.82076 | 20.30385 | 305 ft | 99 kts | 122° |
| 2026-05-06 13:58 | 44.81795 | 20.31012 | 307 ft | 63 kts | 122° |
| 2026-05-06 13:58 | 44.81578 | 20.31510 | 305 ft | 56 kts | 121° |
| 2026-05-06 13:58 | 44.81413 | 20.31884 | 310 ft | 38 kts | 122° |
| 2026-05-06 13:59 | 44.81280 | 20.32175 | 309 ft | 30 kts | 123° |
| 2026-05-06 13:59 | 44.81127 | 20.32307 | 308 ft | 20 kts | 178° |
| 2026-05-06 13:59 | 44.81077 | 20.32186 | 304 ft | 20 kts | 294° |
| 2026-05-06 13:59 | 44.81176 | 20.31957 | 308 ft | 33 kts | 302° |
| 2026-05-06 14:00 | 44.81302 | 20.31675 | 309 ft | 35 kts | 302° |
| 2026-05-06 14:00 | 44.81433 | 20.31379 | 307 ft | 36 kts | 302° |
| 2026-05-06 14:00 | 44.81563 | 20.31088 | 305 ft | 33 kts | 302° |
| 2026-05-06 14:00 | 44.81684 | 20.30822 | 306 ft | 31 kts | 302° |
| 2026-05-06 14:01 | 44.81802 | 20.30556 | 309 ft | 33 kts | 302° |
| 2026-05-06 14:01 | 44.81924 | 20.30276 | 306 ft | 33 kts | 301° |
| 2026-05-06 14:01 | 44.82035 | 20.30027 | 307 ft | 31 kts | 302° |
| 2026-05-06 14:01 | 44.82142 | 20.29785 | 307 ft | 24 kts | 301° |
| 2026-05-06 14:02 | 44.82194 | 20.29629 | 308 ft | 12 kts | 253° |
| 2026-05-06 14:02 | 44.82128 | 20.29554 | 310 ft | 14 kts | 208° |
| 2026-05-06 14:02 | 44.82053 | 20.29484 | 308 ft | 12 kts | 214° |
| 2026-05-06 14:02 | 44.82033 | 20.29430 | 309 ft | 5 kts | 298° |
| 2026-05-06 14:03 | 44.82051 | 20.29385 | 310 ft | 4 kts | 301° |
| 2026-05-06 14:03 | 44.82059 | 20.29366 | 309 ft | 1 kts | 302° |